sensor_id;sensor_type;location;lat;lon;timestamp;P1;durP1;ratioP1;P2;durP2;ratioP2
13834;SDS011;6988;52.614;13.500;2024-02-21T00:03:34;21.57;;;7.10;;
13834;SDS011;6988;52.614;13.500;2024-02-21T00:08:26;19.10;;;6.80;;
13834;SDS011;6988;52.614;13.500;2024-02-21T00:13:18;22.90;;;6.73;;
13834;SDS011;6988;52.614;13.500;2024-02-21T00:18:09;24.70;;;7.10;;
13834;SDS011;6988;52.614;13.500;2024-02-21T00:23:04;22.23;;;7.37;;
13834;SDS011;6988;52.614;13.500;2024-02-21T00:27:56;17.20;;;6.07;;
13834;SDS011;6988;52.614;13.500;2024-02-21T00:32:47;19.97;;;6.90;;
13834;SDS011;6988;52.614;13.500;2024-02-21T00:37:39;22.70;;;6.23;;
13834;SDS011;6988;52.614;13.500;2024-02-21T00:42:32;18.87;;;6.20;;
13834;SDS011;6988;52.614;13.500;2024-02-21T00:47:25;24.70;;;6.90;;
13834;SDS011;6988;52.614;13.500;2024-02-21T00:52:17;21.57;;;6.30;;
13834;SDS011;6988;52.614;13.500;2024-02-21T00:57:09;22.57;;;6.20;;
13834;SDS011;6988;52.614;13.500;2024-02-21T01:02:02;16.97;;;6.47;;
13834;SDS011;6988;52.614;13.500;2024-02-21T01:06:54;22.63;;;6.10;;
13834;SDS011;6988;52.614;13.500;2024-02-21T01:11:46;23.87;;;5.47;;
13834;SDS011;6988;52.614;13.500;2024-02-21T01:16:37;18.50;;;5.47;;
13834;SDS011;6988;52.614;13.500;2024-02-21T01:21:31;22.13;;;5.33;;
13834;SDS011;6988;52.614;13.500;2024-02-21T01:26:23;18.17;;;6.10;;
13834;SDS011;6988;52.614;13.500;2024-02-21T01:31:14;20.37;;;5.70;;
13834;SDS011;6988;52.614;13.500;2024-02-21T01:36:06;16.83;;;5.77;;
13834;SDS011;6988;52.614;13.500;2024-02-21T01:41:00;13.93;;;4.90;;
13834;SDS011;6988;52.614;13.500;2024-02-21T01:45:52;16.50;;;5.23;;
13834;SDS011;6988;52.614;13.500;2024-02-21T01:50:46;19.80;;;5.20;;
13834;SDS011;6988;52.614;13.500;2024-02-21T01:55:40;14.53;;;4.90;;
13834;SDS011;6988;52.614;13.500;2024-02-21T02:00:35;21.43;;;5.40;;
13834;SDS011;6988;52.614;13.500;2024-02-21T02:05:30;18.50;;;4.93;;
13834;SDS011;6988;52.614;13.500;2024-02-21T02:10:21;18.80;;;4.80;;
13834;SDS011;6988;52.614;13.500;2024-02-21T02:15:14;18.93;;;5.10;;
13834;SDS011;6988;52.614;13.500;2024-02-21T02:20:08;16.23;;;4.90;;
13834;SDS011;6988;52.614;13.500;2024-02-21T02:25:03;14.83;;;4.70;;
13834;SDS011;6988;52.614;13.500;2024-02-21T02:29:55;20.07;;;5.40;;
13834;SDS011;6988;52.614;13.500;2024-02-21T02:34:47;16.67;;;5.40;;
13834;SDS011;6988;52.614;13.500;2024-02-21T02:39:42;18.27;;;5.40;;
13834;SDS011;6988;52.614;13.500;2024-02-21T02:44:35;15.50;;;5.10;;
13834;SDS011;6988;52.614;13.500;2024-02-21T02:49:27;15.93;;;5.00;;
13834;SDS011;6988;52.614;13.500;2024-02-21T02:54:19;20.13;;;6.03;;
13834;SDS011;6988;52.614;13.500;2024-02-21T02:59:11;20.07;;;5.40;;
13834;SDS011;6988;52.614;13.500;2024-02-21T03:04:04;16.70;;;5.60;;
13834;SDS011;6988;52.614;13.500;2024-02-21T03:08:56;17.87;;;5.63;;
13834;SDS011;6988;52.614;13.500;2024-02-21T03:13:48;19.47;;;6.10;;
13834;SDS011;6988;52.614;13.500;2024-02-21T03:18:43;22.17;;;6.87;;
13834;SDS011;6988;52.614;13.500;2024-02-21T03:23:37;18.27;;;6.50;;
13834;SDS011;6988;52.614;13.500;2024-02-21T03:28:29;20.20;;;6.60;;
13834;SDS011;6988;52.614;13.500;2024-02-21T03:33:20;17.70;;;7.07;;
13834;SDS011;6988;52.614;13.500;2024-02-21T03:38:13;16.73;;;6.17;;
13834;SDS011;6988;52.614;13.500;2024-02-21T03:43:06;19.80;;;7.47;;
13834;SDS011;6988;52.614;13.500;2024-02-21T03:47:58;18.87;;;7.30;;
13834;SDS011;6988;52.614;13.500;2024-02-21T03:52:50;20.83;;;8.27;;
13834;SDS011;6988;52.614;13.500;2024-02-21T03:57:42;17.47;;;7.53;;
13834;SDS011;6988;52.614;13.500;2024-02-21T04:02:35;19.00;;;7.50;;
13834;SDS011;6988;52.614;13.500;2024-02-21T04:07:27;19.60;;;8.07;;
13834;SDS011;6988;52.614;13.500;2024-02-21T04:12:19;20.37;;;8.03;;
13834;SDS011;6988;52.614;13.500;2024-02-21T04:17:11;17.93;;;8.43;;
13834;SDS011;6988;52.614;13.500;2024-02-21T04:22:04;21.87;;;9.03;;
13834;SDS011;6988;52.614;13.500;2024-02-21T04:26:56;21.23;;;9.50;;
13834;SDS011;6988;52.614;13.500;2024-02-21T04:31:47;20.63;;;8.67;;
13834;SDS011;6988;52.614;13.500;2024-02-21T04:36:40;20.90;;;8.47;;
13834;SDS011;6988;52.614;13.500;2024-02-21T04:41:34;24.07;;;9.13;;
13834;SDS011;6988;52.614;13.500;2024-02-21T04:46:26;25.30;;;9.20;;
13834;SDS011;6988;52.614;13.500;2024-02-21T04:51:18;25.53;;;8.97;;
13834;SDS011;6988;52.614;13.500;2024-02-21T04:56:10;19.73;;;9.87;;
13834;SDS011;6988;52.614;13.500;2024-02-21T05:01:04;26.17;;;9.60;;
13834;SDS011;6988;52.614;13.500;2024-02-21T05:05:56;22.93;;;9.77;;
13834;SDS011;6988;52.614;13.500;2024-02-21T05:10:48;22.57;;;9.43;;
13834;SDS011;6988;52.614;13.500;2024-02-21T05:15:39;23.00;;;9.13;;
13834;SDS011;6988;52.614;13.500;2024-02-21T05:20:33;19.50;;;9.07;;
13834;SDS011;6988;52.614;13.500;2024-02-21T05:25:24;25.73;;;9.63;;
13834;SDS011;6988;52.614;13.500;2024-02-21T05:30:16;21.50;;;8.57;;
13834;SDS011;6988;52.614;13.500;2024-02-21T05:35:08;20.70;;;9.23;;
13834;SDS011;6988;52.614;13.500;2024-02-21T05:40:02;24.13;;;9.47;;
13834;SDS011;6988;52.614;13.500;2024-02-21T05:44:54;22.80;;;9.43;;
13834;SDS011;6988;52.614;13.500;2024-02-21T05:49:46;18.80;;;9.27;;
13834;SDS011;6988;52.614;13.500;2024-02-21T05:54:38;24.47;;;10.07;;
13834;SDS011;6988;52.614;13.500;2024-02-21T05:59:32;26.80;;;10.33;;
13834;SDS011;6988;52.614;13.500;2024-02-21T06:04:25;21.63;;;9.83;;
13834;SDS011;6988;52.614;13.500;2024-02-21T06:09:17;27.67;;;10.43;;
13834;SDS011;6988;52.614;13.500;2024-02-21T06:14:08;22.53;;;9.33;;
13834;SDS011;6988;52.614;13.500;2024-02-21T06:19:02;24.27;;;9.90;;
13834;SDS011;6988;52.614;13.500;2024-02-21T06:23:54;20.37;;;9.70;;
13834;SDS011;6988;52.614;13.500;2024-02-21T06:28:46;21.37;;;10.03;;
13834;SDS011;6988;52.614;13.500;2024-02-21T06:33:37;24.20;;;10.37;;
13834;SDS011;6988;52.614;13.500;2024-02-21T06:38:30;22.47;;;9.43;;
13834;SDS011;6988;52.614;13.500;2024-02-21T06:43:24;24.10;;;10.10;;
13834;SDS011;6988;52.614;13.500;2024-02-21T06:48:16;22.23;;;10.57;;
13834;SDS011;6988;52.614;13.500;2024-02-21T06:53:09;21.47;;;10.60;;
13834;SDS011;6988;52.614;13.500;2024-02-21T06:58:02;29.50;;;11.37;;
13834;SDS011;6988;52.614;13.500;2024-02-21T07:02:54;22.20;;;11.23;;
13834;SDS011;6988;52.614;13.500;2024-02-21T07:07:46;20.93;;;10.20;;
13834;SDS011;6988;52.614;13.500;2024-02-21T07:12:38;21.33;;;10.20;;
13834;SDS011;6988;52.614;13.500;2024-02-21T07:17:33;21.13;;;10.37;;
13834;SDS011;6988;52.614;13.500;2024-02-21T07:22:25;22.73;;;10.43;;
13834;SDS011;6988;52.614;13.500;2024-02-21T07:27:19;19.47;;;9.60;;
13834;SDS011;6988;52.614;13.500;2024-02-21T07:32:12;21.50;;;10.60;;
13834;SDS011;6988;52.614;13.500;2024-02-21T07:37:05;17.73;;;10.17;;
13834;SDS011;6988;52.614;13.500;2024-02-21T07:41:57;19.63;;;10.27;;
13834;SDS011;6988;52.614;13.500;2024-02-21T07:46:49;21.27;;;8.97;;
13834;SDS011;6988;52.614;13.500;2024-02-21T07:51:40;18.03;;;9.73;;
13834;SDS011;6988;52.614;13.500;2024-02-21T07:56:34;21.60;;;9.93;;
13834;SDS011;6988;52.614;13.500;2024-02-21T08:01:25;23.30;;;9.23;;
13834;SDS011;6988;52.614;13.500;2024-02-21T08:06:17;17.83;;;8.70;;
13834;SDS011;6988;52.614;13.500;2024-02-21T08:11:09;17.47;;;9.43;;
13834;SDS011;6988;52.614;13.500;2024-02-21T08:16:03;20.70;;;9.37;;
13834;SDS011;6988;52.614;13.500;2024-02-21T08:20:55;15.07;;;8.37;;
13834;SDS011;6988;52.614;13.500;2024-02-21T08:25:47;13.73;;;7.77;;
13834;SDS011;6988;52.614;13.500;2024-02-21T08:30:39;16.80;;;9.37;;
13834;SDS011;6988;52.614;13.500;2024-02-21T08:35:35;19.70;;;8.67;;
13834;SDS011;6988;52.614;13.500;2024-02-21T08:40:27;18.07;;;9.57;;
13834;SDS011;6988;52.614;13.500;2024-02-21T08:45:19;15.13;;;8.27;;
13834;SDS011;6988;52.614;13.500;2024-02-21T08:50:11;19.63;;;9.73;;
13834;SDS011;6988;52.614;13.500;2024-02-21T08:55:07;21.73;;;9.87;;
13834;SDS011;6988;52.614;13.500;2024-02-21T08:59:59;19.00;;;8.53;;
13834;SDS011;6988;52.614;13.500;2024-02-21T09:04:51;15.80;;;8.10;;
13834;SDS011;6988;52.614;13.500;2024-02-21T09:09:44;16.20;;;8.70;;
13834;SDS011;6988;52.614;13.500;2024-02-21T09:14:37;16.30;;;8.80;;
13834;SDS011;6988;52.614;13.500;2024-02-21T09:19:29;19.40;;;8.93;;
13834;SDS011;6988;52.614;13.500;2024-02-21T09:24:23;17.10;;;9.73;;
13834;SDS011;6988;52.614;13.500;2024-02-21T09:29:15;19.27;;;9.33;;
13834;SDS011;6988;52.614;13.500;2024-02-21T09:34:09;18.17;;;8.90;;
13834;SDS011;6988;52.614;13.500;2024-02-21T09:39:01;22.57;;;9.27;;
13834;SDS011;6988;52.614;13.500;2024-02-21T09:43:53;20.67;;;9.50;;
13834;SDS011;6988;52.614;13.500;2024-02-21T09:48:53;20.80;;;8.97;;
13834;SDS011;6988;52.614;13.500;2024-02-21T09:54:03;21.20;;;10.40;;
13834;SDS011;6988;52.614;13.500;2024-02-21T09:58:55;17.57;;;8.60;;
13834;SDS011;6988;52.614;13.500;2024-02-21T10:03:49;19.30;;;10.23;;
13834;SDS011;6988;52.614;13.500;2024-02-21T10:08:42;20.73;;;9.73;;
13834;SDS011;6988;52.614;13.500;2024-02-21T10:13:36;18.70;;;9.87;;
13834;SDS011;6988;52.614;13.500;2024-02-21T10:18:28;16.83;;;10.40;;
13834;SDS011;6988;52.614;13.500;2024-02-21T10:23:20;20.37;;;9.37;;
13834;SDS011;6988;52.614;13.500;2024-02-21T10:28:12;17.50;;;9.47;;
13834;SDS011;6988;52.614;13.500;2024-02-21T10:33:06;18.30;;;9.90;;
13834;SDS011;6988;52.614;13.500;2024-02-21T10:37:58;21.17;;;8.80;;
13834;SDS011;6988;52.614;13.500;2024-02-21T10:42:52;17.90;;;9.17;;
13834;SDS011;6988;52.614;13.500;2024-02-21T10:47:50;18.07;;;9.03;;
13834;SDS011;6988;52.614;13.500;2024-02-21T10:53:00;17.83;;;8.77;;
13834;SDS011;6988;52.614;13.500;2024-02-21T10:58:07;15.57;;;8.53;;
13834;SDS011;6988;52.614;13.500;2024-02-21T11:03:04;13.90;;;7.73;;
13834;SDS011;6988;52.614;13.500;2024-02-21T11:07:58;14.83;;;8.60;;
13834;SDS011;6988;52.614;13.500;2024-02-21T11:12:52;16.53;;;7.80;;
13834;SDS011;6988;52.614;13.500;2024-02-21T11:17:53;13.00;;;7.13;;
13834;SDS011;6988;52.614;13.500;2024-02-21T11:22:46;13.70;;;7.70;;
13834;SDS011;6988;52.614;13.500;2024-02-21T11:27:46;12.73;;;7.47;;
13834;SDS011;6988;52.614;13.500;2024-02-21T11:32:38;15.00;;;7.90;;
13834;SDS011;6988;52.614;13.500;2024-02-21T11:37:30;15.37;;;7.53;;
13834;SDS011;6988;52.614;13.500;2024-02-21T11:42:24;10.77;;;7.00;;
13834;SDS011;6988;52.614;13.500;2024-02-21T11:47:18;12.57;;;6.73;;
13834;SDS011;6988;52.614;13.500;2024-02-21T11:52:12;8.47;;;6.33;;
13834;SDS011;6988;52.614;13.500;2024-02-21T11:57:05;10.87;;;6.80;;
13834;SDS011;6988;52.614;13.500;2024-02-21T12:01:58;10.40;;;6.40;;
13834;SDS011;6988;52.614;13.500;2024-02-21T12:06:53;10.10;;;6.27;;
13834;SDS011;6988;52.614;13.500;2024-02-21T12:11:45;11.87;;;6.10;;
13834;SDS011;6988;52.614;13.500;2024-02-21T12:16:47;8.10;;;5.53;;
13834;SDS011;6988;52.614;13.500;2024-02-21T12:21:39;9.30;;;6.07;;
13834;SDS011;6988;52.614;13.500;2024-02-21T12:26:33;8.87;;;5.13;;
13834;SDS011;6988;52.614;13.500;2024-02-21T12:31:25;10.00;;;5.57;;
13834;SDS011;6988;52.614;13.500;2024-02-21T12:36:18;10.13;;;5.43;;
13834;SDS011;6988;52.614;13.500;2024-02-21T12:41:10;8.30;;;5.10;;
13834;SDS011;6988;52.614;13.500;2024-02-21T12:46:03;7.10;;;4.40;;
13834;SDS011;6988;52.614;13.500;2024-02-21T12:50:57;5.40;;;3.77;;
13834;SDS011;6988;52.614;13.500;2024-02-21T12:55:50;6.23;;;3.90;;
13834;SDS011;6988;52.614;13.500;2024-02-21T13:00:42;6.07;;;3.57;;
13834;SDS011;6988;52.614;13.500;2024-02-21T13:05:36;4.83;;;3.23;;
13834;SDS011;6988;52.614;13.500;2024-02-21T13:10:28;8.13;;;3.17;;
13834;SDS011;6988;52.614;13.500;2024-02-21T13:15:20;4.60;;;2.93;;
13834;SDS011;6988;52.614;13.500;2024-02-21T13:20:12;5.47;;;3.00;;
13834;SDS011;6988;52.614;13.500;2024-02-21T13:25:07;5.27;;;3.20;;
13834;SDS011;6988;52.614;13.500;2024-02-21T13:30:00;4.53;;;2.70;;
13834;SDS011;6988;52.614;13.500;2024-02-21T13:34:55;6.63;;;3.20;;
13834;SDS011;6988;52.614;13.500;2024-02-21T13:39:51;3.77;;;3.10;;
13834;SDS011;6988;52.614;13.500;2024-02-21T13:44:44;5.13;;;3.00;;
13834;SDS011;6988;52.614;13.500;2024-02-21T13:49:36;8.53;;;3.80;;
13834;SDS011;6988;52.614;13.500;2024-02-21T13:54:29;7.73;;;4.47;;
13834;SDS011;6988;52.614;13.500;2024-02-21T13:59:21;6.47;;;4.00;;
13834;SDS011;6988;52.614;13.500;2024-02-21T14:04:14;10.90;;;4.17;;
13834;SDS011;6988;52.614;13.500;2024-02-21T14:09:06;10.00;;;4.43;;
13834;SDS011;6988;52.614;13.500;2024-02-21T14:13:58;7.10;;;3.90;;
13834;SDS011;6988;52.614;13.500;2024-02-21T14:18:50;7.60;;;4.03;;
13834;SDS011;6988;52.614;13.500;2024-02-21T14:23:45;6.23;;;3.90;;
13834;SDS011;6988;52.614;13.500;2024-02-21T14:28:37;13.90;;;4.70;;
13834;SDS011;6988;52.614;13.500;2024-02-21T14:33:30;6.37;;;4.10;;
13834;SDS011;6988;52.614;13.500;2024-02-21T14:38:22;8.90;;;4.37;;
13834;SDS011;6988;52.614;13.500;2024-02-21T14:43:15;8.50;;;3.97;;
13834;SDS011;6988;52.614;13.500;2024-02-21T14:48:08;10.03;;;3.70;;
13834;SDS011;6988;52.614;13.500;2024-02-21T14:53:00;10.77;;;3.83;;
13834;SDS011;6988;52.614;13.500;2024-02-21T14:57:52;7.73;;;3.60;;
13834;SDS011;6988;52.614;13.500;2024-02-21T15:02:46;8.47;;;3.83;;
13834;SDS011;6988;52.614;13.500;2024-02-21T15:07:38;5.67;;;3.80;;
13834;SDS011;6988;52.614;13.500;2024-02-21T15:12:30;8.17;;;3.70;;
13834;SDS011;6988;52.614;13.500;2024-02-21T15:17:22;9.80;;;3.63;;
13834;SDS011;6988;52.614;13.500;2024-02-21T15:22:16;8.23;;;3.03;;
13834;SDS011;6988;52.614;13.500;2024-02-21T15:27:09;6.03;;;3.00;;
13834;SDS011;6988;52.614;13.500;2024-02-21T15:32:01;8.97;;;3.20;;
13834;SDS011;6988;52.614;13.500;2024-02-21T15:36:57;6.30;;;2.80;;
13834;SDS011;6988;52.614;13.500;2024-02-21T15:41:51;6.83;;;3.00;;
13834;SDS011;6988;52.614;13.500;2024-02-21T15:46:43;7.23;;;3.40;;
13834;SDS011;6988;52.614;13.500;2024-02-21T15:51:35;6.67;;;2.70;;
13834;SDS011;6988;52.614;13.500;2024-02-21T15:56:30;4.70;;;2.30;;
13834;SDS011;6988;52.614;13.500;2024-02-21T16:01:23;6.10;;;2.40;;
13834;SDS011;6988;52.614;13.500;2024-02-21T16:06:15;6.27;;;2.40;;
13834;SDS011;6988;52.614;13.500;2024-02-21T16:11:08;4.73;;;2.50;;
13834;SDS011;6988;52.614;13.500;2024-02-21T16:16:07;5.23;;;3.20;;
13834;SDS011;6988;52.614;13.500;2024-02-21T16:21:01;7.77;;;2.37;;
13834;SDS011;6988;52.614;13.500;2024-02-21T16:25:55;6.93;;;2.70;;
13834;SDS011;6988;52.614;13.500;2024-02-21T16:30:47;7.47;;;3.20;;
13834;SDS011;6988;52.614;13.500;2024-02-21T16:35:40;7.07;;;3.40;;
13834;SDS011;6988;52.614;13.500;2024-02-21T16:40:33;8.77;;;3.50;;
13834;SDS011;6988;52.614;13.500;2024-02-21T16:45:27;7.87;;;3.90;;
13834;SDS011;6988;52.614;13.500;2024-02-21T16:50:19;9.20;;;4.47;;
13834;SDS011;6988;52.614;13.500;2024-02-21T16:55:12;11.57;;;4.73;;
13834;SDS011;6988;52.614;13.500;2024-02-21T17:00:06;10.30;;;4.47;;
13834;SDS011;6988;52.614;13.500;2024-02-21T17:05:01;11.73;;;4.83;;
13834;SDS011;6988;52.614;13.500;2024-02-21T17:09:53;11.43;;;4.90;;
13834;SDS011;6988;52.614;13.500;2024-02-21T17:14:45;10.03;;;5.00;;
13834;SDS011;6988;52.614;13.500;2024-02-21T17:19:39;12.83;;;4.90;;
13834;SDS011;6988;52.614;13.500;2024-02-21T17:24:31;10.23;;;4.97;;
13834;SDS011;6988;52.614;13.500;2024-02-21T17:29:24;9.60;;;4.43;;
13834;SDS011;6988;52.614;13.500;2024-02-21T17:34:17;11.97;;;4.53;;
13834;SDS011;6988;52.614;13.500;2024-02-21T17:39:12;9.47;;;4.97;;
13834;SDS011;6988;52.614;13.500;2024-02-21T17:44:05;11.70;;;4.27;;
13834;SDS011;6988;52.614;13.500;2024-02-21T17:48:58;9.60;;;4.33;;
13834;SDS011;6988;52.614;13.500;2024-02-21T17:53:50;8.63;;;3.40;;
13834;SDS011;6988;52.614;13.500;2024-02-21T17:58:43;7.73;;;4.10;;
13834;SDS011;6988;52.614;13.500;2024-02-21T18:03:35;8.83;;;3.77;;
13834;SDS011;6988;52.614;13.500;2024-02-21T18:08:28;9.87;;;3.73;;
13834;SDS011;6988;52.614;13.500;2024-02-21T18:13:20;7.17;;;3.97;;
13834;SDS011;6988;52.614;13.500;2024-02-21T18:18:14;8.77;;;4.33;;
13834;SDS011;6988;52.614;13.500;2024-02-21T18:23:06;11.63;;;3.93;;
13834;SDS011;6988;52.614;13.500;2024-02-21T18:27:58;8.83;;;3.80;;
13834;SDS011;6988;52.614;13.500;2024-02-21T18:32:50;10.73;;;4.27;;
13834;SDS011;6988;52.614;13.500;2024-02-21T18:37:45;9.40;;;4.00;;
13834;SDS011;6988;52.614;13.500;2024-02-21T18:42:37;8.47;;;3.97;;
13834;SDS011;6988;52.614;13.500;2024-02-21T18:47:30;10.37;;;5.07;;
13834;SDS011;6988;52.614;13.500;2024-02-21T18:52:22;11.67;;;4.33;;
13834;SDS011;6988;52.614;13.500;2024-02-21T18:57:16;10.93;;;5.30;;
13834;SDS011;6988;52.614;13.500;2024-02-21T19:02:08;14.03;;;5.17;;
13834;SDS011;6988;52.614;13.500;2024-02-21T19:07:00;7.73;;;3.77;;
13834;SDS011;6988;52.614;13.500;2024-02-21T19:11:52;9.87;;;4.33;;
13834;SDS011;6988;52.614;13.500;2024-02-21T19:16:45;8.67;;;4.13;;
13834;SDS011;6988;52.614;13.500;2024-02-21T19:21:37;9.27;;;4.33;;
13834;SDS011;6988;52.614;13.500;2024-02-21T19:26:30;10.97;;;4.33;;
13834;SDS011;6988;52.614;13.500;2024-02-21T19:31:22;7.17;;;4.47;;
13834;SDS011;6988;52.614;13.500;2024-02-21T19:36:15;10.00;;;5.10;;
13834;SDS011;6988;52.614;13.500;2024-02-21T19:41:09;7.97;;;4.60;;
13834;SDS011;6988;52.614;13.500;2024-02-21T19:46:01;7.33;;;5.10;;
13834;SDS011;6988;52.614;13.500;2024-02-21T19:50:53;8.97;;;5.27;;
13834;SDS011;6988;52.614;13.500;2024-02-21T19:55:48;9.80;;;5.97;;
13834;SDS011;6988;52.614;13.500;2024-02-21T20:00:40;8.50;;;5.67;;
13834;SDS011;6988;52.614;13.500;2024-02-21T20:05:33;11.27;;;5.47;;
13834;SDS011;6988;52.614;13.500;2024-02-21T20:10:25;9.87;;;5.23;;
13834;SDS011;6988;52.614;13.500;2024-02-21T20:15:18;13.13;;;6.03;;
13834;SDS011;6988;52.614;13.500;2024-02-21T20:20:10;9.17;;;5.53;;
13834;SDS011;6988;52.614;13.500;2024-02-21T20:25:03;8.50;;;5.43;;
13834;SDS011;6988;52.614;13.500;2024-02-21T20:29:56;12.63;;;5.47;;
13834;SDS011;6988;52.614;13.500;2024-02-21T20:34:49;8.90;;;5.53;;
13834;SDS011;6988;52.614;13.500;2024-02-21T20:39:41;10.03;;;5.50;;
13834;SDS011;6988;52.614;13.500;2024-02-21T20:44:33;9.20;;;4.80;;
13834;SDS011;6988;52.614;13.500;2024-02-21T20:49:25;8.37;;;5.67;;
13834;SDS011;6988;52.614;13.500;2024-02-21T20:54:20;10.17;;;5.10;;
13834;SDS011;6988;52.614;13.500;2024-02-21T20:59:12;10.47;;;5.23;;
13834;SDS011;6988;52.614;13.500;2024-02-21T21:04:05;9.33;;;5.03;;
13834;SDS011;6988;52.614;13.500;2024-02-21T21:08:57;5.70;;;4.43;;
13834;SDS011;6988;52.614;13.500;2024-02-21T21:13:50;8.23;;;4.70;;
13834;SDS011;6988;52.614;13.500;2024-02-21T21:18:42;8.80;;;4.53;;
13834;SDS011;6988;52.614;13.500;2024-02-21T21:23:34;7.60;;;3.73;;
13834;SDS011;6988;52.614;13.500;2024-02-21T21:28:26;7.77;;;4.40;;
13834;SDS011;6988;52.614;13.500;2024-02-21T21:33:19;8.83;;;4.23;;
13834;SDS011;6988;52.614;13.500;2024-02-21T21:38:12;9.70;;;4.10;;
13834;SDS011;6988;52.614;13.500;2024-02-21T21:43:04;6.90;;;3.90;;
13834;SDS011;6988;52.614;13.500;2024-02-21T21:47:55;8.47;;;4.30;;
13834;SDS011;6988;52.614;13.500;2024-02-21T21:52:48;8.30;;;3.47;;
13834;SDS011;6988;52.614;13.500;2024-02-21T21:57:40;10.73;;;4.20;;
13834;SDS011;6988;52.614;13.500;2024-02-21T22:02:35;9.43;;;3.87;;
13834;SDS011;6988;52.614;13.500;2024-02-21T22:07:27;6.43;;;3.10;;
13834;SDS011;6988;52.614;13.500;2024-02-21T22:12:20;7.67;;;3.60;;
13834;SDS011;6988;52.614;13.500;2024-02-21T22:17:12;7.73;;;3.33;;
13834;SDS011;6988;52.614;13.500;2024-02-21T22:22:04;6.47;;;2.77;;
13834;SDS011;6988;52.614;13.500;2024-02-21T22:26:56;9.80;;;3.30;;
13834;SDS011;6988;52.614;13.500;2024-02-21T22:31:51;6.23;;;3.27;;
13834;SDS011;6988;52.614;13.500;2024-02-21T22:36:42;7.40;;;3.50;;
13834;SDS011;6988;52.614;13.500;2024-02-21T22:41:34;6.43;;;3.00;;
13834;SDS011;6988;52.614;13.500;2024-02-21T23:04:31;8.83;;;3.60;;
13834;SDS011;6988;52.614;13.500;2024-02-21T23:09:23;6.27;;;2.80;;
13834;SDS011;6988;52.614;13.500;2024-02-21T23:14:14;5.10;;;2.33;;
13834;SDS011;6988;52.614;13.500;2024-02-21T23:19:08;8.67;;;2.63;;
13834;SDS011;6988;52.614;13.500;2024-02-21T23:24:02;5.23;;;2.57;;
13834;SDS011;6988;52.614;13.500;2024-02-21T23:28:54;8.90;;;3.53;;
13834;SDS011;6988;52.614;13.500;2024-02-21T23:33:47;8.37;;;2.73;;
13834;SDS011;6988;52.614;13.500;2024-02-21T23:38:39;3.97;;;2.23;;
13834;SDS011;6988;52.614;13.500;2024-02-21T23:43:36;6.87;;;2.70;;
13834;SDS011;6988;52.614;13.500;2024-02-21T23:48:32;4.47;;;2.23;;
13834;SDS011;6988;52.614;13.500;2024-02-21T23:53:25;9.10;;;2.90;;
13834;SDS011;6988;52.614;13.500;2024-02-21T23:58:17;5.07;;;2.43;;
